createdAt,value
2022-08-09T00:02:56.705Z,16.55
2022-08-09T00:08:01.454Z,16.56
2022-08-09T00:13:16.922Z,16.58
2022-08-09T00:18:21.485Z,16.53
2022-08-09T00:23:55.324Z,16.50
2022-08-09T00:28:52.507Z,16.50
2022-08-09T00:33:56.402Z,16.48
2022-08-09T00:38:59.715Z,16.42
2022-08-09T00:44:15.135Z,16.25
2022-08-09T00:49:26.613Z,16.10
2022-08-09T00:54:35.875Z,16.03
2022-08-09T00:59:46.258Z,15.99
2022-08-09T01:04:58.460Z,15.97
2022-08-09T01:10:11.458Z,16.03
2022-08-09T01:15:19.472Z,16.10
2022-08-09T01:20:35.759Z,16.15
2022-08-09T01:26:09.967Z,16.16
2022-08-09T01:31:40.909Z,16.23
2022-08-09T01:36:46.824Z,16.27
2022-08-09T01:41:53.784Z,16.29
2022-08-09T01:47:06.173Z,16.28
2022-08-09T01:52:18.867Z,16.21
2022-08-09T01:57:29.142Z,16.11
2022-08-09T02:02:36.570Z,16.03
2022-08-09T02:08:39.436Z,15.96
2022-08-09T02:13:19.921Z,15.93
2022-08-09T02:18:28.618Z,15.91
2022-08-09T02:23:42.876Z,15.88
2022-08-09T02:28:53.394Z,15.85
2022-08-09T02:34:07.162Z,15.75
2022-08-09T02:39:33.638Z,15.67
2022-08-09T02:44:53.096Z,15.65
2022-08-09T02:50:02.814Z,15.65
2022-08-09T02:55:20.906Z,15.65
2022-08-09T03:00:26.498Z,15.66
2022-08-09T03:05:34.387Z,15.63
2022-08-09T03:10:40.009Z,15.56
2022-08-09T03:16:05.993Z,15.50
2022-08-09T03:21:12.285Z,15.44
2022-08-09T03:26:21.076Z,15.41
2022-08-09T03:31:42.686Z,15.41
2022-08-09T03:37:10.578Z,15.34
2022-08-09T03:42:14.065Z,15.31
2022-08-09T03:47:22.700Z,15.29
2022-08-09T03:52:30.146Z,15.25
2022-08-09T03:57:34.441Z,15.26
2022-08-09T04:02:57.580Z,15.28
2022-08-09T04:08:00.929Z,15.29
2022-08-09T04:13:11.496Z,15.27
2022-08-09T04:18:17.908Z,15.28
2022-08-09T04:23:24.425Z,15.38
2022-08-09T04:28:33.872Z,15.47
2022-08-09T04:33:51.800Z,15.61
2022-08-09T04:39:03.807Z,15.81
2022-08-09T04:44:12.336Z,15.99
2022-08-09T04:49:30.250Z,16.11
2022-08-09T04:54:42.103Z,16.21
2022-08-09T04:59:45.512Z,16.34
2022-08-09T05:04:55.837Z,16.50
2022-08-09T05:10:01.784Z,16.60
2022-08-09T05:15:11.727Z,16.72
2022-08-09T05:20:29.800Z,16.72
2022-08-09T05:25:34.229Z,16.72
2022-08-09T05:30:38.673Z,16.80
2022-08-09T05:35:51.198Z,16.87
2022-08-09T05:40:54.495Z,16.99
2022-08-09T05:45:58.003Z,17.21
2022-08-09T05:51:42.813Z,17.40
2022-08-09T05:56:26.649Z,17.69
2022-08-09T06:01:33.531Z,17.96
2022-08-09T06:06:37.573Z,18.08
2022-08-09T06:11:57.489Z,18.18
2022-08-09T06:17:09.377Z,18.35
2022-08-09T06:22:15.350Z,18.43
2022-08-09T06:27:19.075Z,18.46
2022-08-09T06:32:59.093Z,18.71
2022-08-09T06:37:53.248Z,19.00
2022-08-09T06:43:10.329Z,19.19
2022-08-09T06:48:16.478Z,19.40
2022-08-09T06:53:20.382Z,19.43
2022-08-09T06:58:40.567Z,19.46
2022-08-09T07:03:51.851Z,19.47
2022-08-09T07:08:57.244Z,19.53
2022-08-09T07:14:04.126Z,19.55
2022-08-09T07:19:14.992Z,19.69
2022-08-09T07:24:20.035Z,19.76
2022-08-09T07:29:24.223Z,19.86
2022-08-09T07:34:28.545Z,20.02
2022-08-09T07:39:40.919Z,19.98
2022-08-09T07:44:51.719Z,19.90
2022-08-09T07:50:07.973Z,20.09
2022-08-09T07:55:12.916Z,20.36
2022-08-09T08:00:20.613Z,20.62
2022-08-09T08:05:53.953Z,20.84
2022-08-09T08:12:07.724Z,21.13
2022-08-09T08:16:31.851Z,21.37
2022-08-09T08:21:39.835Z,21.36
2022-08-09T08:27:16.936Z,21.45
2022-08-09T08:32:28.932Z,21.64
2022-08-09T08:37:41.396Z,21.81
2022-08-09T08:42:58.675Z,21.92
2022-08-09T08:48:03.240Z,21.82
2022-08-09T08:53:15.886Z,22.29
2022-08-09T08:58:27.098Z,22.61
2022-08-09T09:03:37.544Z,23.00
2022-08-09T09:08:43.284Z,23.31
2022-08-09T09:14:00.960Z,23.81
2022-08-09T09:19:40.428Z,24.08
2022-08-09T09:24:34.641Z,24.35
2022-08-09T09:30:10.653Z,24.68
2022-08-09T09:35:16.002Z,24.96
2022-08-09T09:40:21.393Z,25.15
2022-08-09T09:45:26.466Z,25.61
2022-08-09T09:50:50.528Z,26.04
2022-08-09T09:56:05.154Z,26.12
2022-08-09T10:01:37.214Z,25.87
2022-08-09T10:06:47.049Z,25.72
2022-08-09T10:12:12.965Z,26.06
2022-08-09T10:17:51.098Z,26.29
2022-08-09T10:23:01.132Z,26.34
2022-08-09T10:28:05.208Z,26.27
2022-08-09T10:34:07.879Z,26.36
2022-08-09T10:38:56.252Z,26.26
2022-08-09T10:44:01.826Z,26.35
2022-08-09T10:49:11.334Z,26.40
2022-08-09T10:54:24.880Z,26.76
2022-08-09T10:59:31.781Z,27.16
2022-08-09T11:05:25.408Z,26.55
2022-08-09T11:10:53.300Z,25.75
2022-08-09T11:16:38.469Z,25.37
2022-08-09T11:21:56.973Z,25.59
2022-08-09T11:28:04.205Z,25.69
2022-08-09T11:33:13.784Z,25.93
2022-08-09T11:38:22.566Z,26.19
2022-08-09T11:43:37.449Z,26.21
2022-08-09T11:48:58.021Z,26.18
2022-08-09T11:54:27.589Z,26.21
2022-08-09T11:59:33.672Z,26.65
2022-08-09T12:04:37.970Z,27.03
2022-08-09T12:09:51.024Z,26.96
2022-08-09T12:15:07.590Z,26.74
2022-08-09T12:20:21.568Z,27.02
2022-08-09T12:25:36.441Z,27.31
2022-08-09T12:30:43.151Z,27.57
2022-08-09T12:35:47.937Z,27.17
2022-08-09T12:40:54.174Z,26.28
2022-08-09T12:46:00.520Z,25.10
2022-08-09T12:51:04.892Z,24.26
2022-08-09T12:56:43.120Z,23.58
2022-08-09T13:02:09.703Z,23.21
2022-08-09T13:07:19.659Z,22.93
2022-08-09T13:12:23.575Z,22.55
2022-08-09T13:18:03.229Z,22.48
2022-08-09T13:23:05.801Z,22.55
2022-08-09T13:28:39.420Z,22.47
2022-08-09T13:33:53.639Z,22.45
2022-08-09T13:39:00.981Z,22.52
2022-08-09T13:44:07.937Z,22.64
2022-08-09T13:49:18.070Z,22.78
2022-08-09T13:54:25.752Z,23.02
2022-08-09T13:59:41.702Z,23.26
2022-08-09T14:04:49.514Z,23.48
2022-08-09T14:10:04.767Z,23.89
2022-08-09T14:16:06.771Z,24.56
2022-08-09T14:20:31.814Z,25.32
2022-08-09T14:25:42.867Z,26.22
2022-08-09T14:30:46.424Z,30.26
2022-08-09T14:35:52.555Z,30.75
2022-08-09T14:41:01.091Z,30.90
2022-08-09T14:46:59.032Z,30.79
2022-08-09T14:51:29.446Z,32.49
2022-08-09T14:56:33.391Z,35.40
2022-08-09T15:01:36.955Z,35.53
2022-08-09T15:06:41.036Z,33.20
2022-08-09T15:11:53.050Z,31.36
2022-08-09T15:16:56.771Z,31.18
2022-08-09T15:22:02.592Z,30.82
2022-08-09T15:27:06.372Z,30.27
2022-08-09T15:32:29.414Z,30.07
2022-08-09T15:37:57.121Z,28.74
2022-08-09T15:43:01.867Z,26.78
2022-08-09T15:48:28.405Z,25.54
2022-08-09T15:54:04.611Z,25.05
2022-08-09T15:58:55.931Z,25.06
2022-08-09T16:03:59.752Z,25.05
2022-08-09T16:09:07.978Z,25.96
2022-08-09T16:14:11.390Z,27.99
2022-08-09T16:19:18.125Z,30.85
2022-08-09T16:24:33.716Z,32.19
2022-08-09T16:29:50.696Z,32.11
2022-08-09T16:34:58.343Z,31.46
2022-08-09T16:40:04.957Z,32.14
2022-08-09T16:45:10.596Z,34.95
2022-08-09T16:50:29.208Z,37.21
2022-08-09T16:55:58.317Z,36.34
2022-08-09T17:00:59.870Z,31.69
2022-08-09T17:06:28.426Z,28.86
2022-08-09T17:11:41.137Z,27.66
2022-08-09T17:16:45.405Z,28.46
2022-08-09T17:21:48.716Z,30.25
2022-08-09T17:26:58.886Z,30.90
2022-08-09T17:32:02.503Z,31.79
2022-08-09T17:37:06.717Z,31.80
2022-08-09T17:42:40.917Z,31.29
2022-08-09T17:47:49.927Z,30.67
2022-08-09T17:52:58.450Z,30.21
2022-08-09T17:58:05.432Z,29.25
2022-08-09T18:03:13.217Z,27.87
2022-08-09T18:08:17.084Z,26.12
2022-08-09T18:13:39.115Z,24.66
2022-08-09T18:18:49.378Z,23.16
2022-08-09T18:24:10.035Z,22.15
2022-08-09T18:30:40.885Z,21.35
2022-08-09T18:34:40.200Z,20.78
2022-08-09T18:39:48.487Z,20.29
2022-08-09T18:44:52.042Z,19.81
2022-08-09T18:50:02.910Z,19.43
2022-08-09T18:55:13.630Z,19.13
2022-08-09T19:00:20.385Z,18.88
2022-08-09T19:05:28.757Z,18.67
2022-08-09T19:10:48.328Z,18.47
2022-08-09T19:15:52.968Z,18.30
2022-08-09T19:21:00.654Z,18.13
2022-08-09T19:26:05.738Z,17.98
2022-08-09T19:31:10.478Z,17.85
2022-08-09T19:36:13.896Z,17.70
2022-08-09T19:41:35.305Z,17.54
2022-08-09T19:46:50.298Z,17.38
2022-08-09T19:51:57.359Z,17.24
2022-08-09T19:57:01.286Z,17.12
2022-08-09T20:03:23.969Z,17.02
2022-08-09T20:07:33.765Z,16.93
2022-08-09T20:12:53.048Z,16.82
2022-08-09T20:17:59.507Z,16.71
2022-08-09T20:23:03.254Z,16.58
2022-08-09T20:28:06.971Z,16.49
2022-08-09T20:33:10.488Z,16.38
2022-08-09T20:38:24.028Z,16.33
2022-08-09T20:43:38.515Z,16.26
2022-08-09T20:48:48.277Z,16.17
2022-08-09T20:53:51.788Z,16.11
2022-08-09T20:58:58.904Z,16.03
2022-08-09T21:05:48.181Z,15.96
2022-08-09T21:09:41.953Z,15.88
2022-08-09T21:14:49.576Z,15.79
2022-08-09T21:20:18.594Z,15.71
2022-08-09T21:25:37.663Z,15.63
2022-08-09T21:30:42.350Z,15.56
2022-08-09T21:35:52.464Z,15.47
2022-08-09T21:40:56.286Z,15.41
2022-08-09T21:45:59.879Z,15.34
2022-08-09T21:51:13.310Z,15.22
2022-08-09T21:56:42.030Z,15.02
2022-08-09T22:02:00.279Z,14.87
2022-08-09T22:07:05.805Z,14.77
2022-08-09T22:12:24.500Z,14.72
2022-08-09T22:17:32.832Z,14.68
2022-08-09T22:22:37.750Z,14.57
2022-08-09T22:27:41.273Z,14.48
2022-08-09T22:32:45.702Z,14.43
2022-08-09T22:37:49.013Z,14.36
2022-08-09T22:43:16.838Z,14.30
2022-08-09T22:48:34.522Z,14.26
2022-08-09T22:53:44.338Z,14.26
2022-08-09T22:59:58.224Z,14.22
2022-08-09T23:04:32.535Z,14.15
2022-08-09T23:09:36.227Z,14.10
2022-08-09T23:14:42.044Z,14.06
2022-08-09T23:20:06.754Z,14.07
2022-08-09T23:25:09.494Z,14.07
2022-08-09T23:30:13.125Z,14.05
2022-08-09T23:35:16.442Z,14.03
2022-08-09T23:40:19.853Z,13.98
2022-08-09T23:45:36.853Z,13.92
2022-08-09T23:50:41.936Z,13.89
2022-08-09T23:55:49.885Z,13.85
